sensor_id;sensor_type;location;lat;lon;timestamp;pressure;altitude;pressure_sealevel;temperature;humidity
70589;BME280;58152;49.202;18.744;2022-08-04T00:00:23;97584.41;;;21.09;51.32
70589;BME280;58152;49.202;18.744;2022-08-04T00:06:19;97598.16;;;21.04;52.15
70589;BME280;58152;49.202;18.744;2022-08-04T00:08:51;97584.97;;;20.92;51.87
70589;BME280;58152;49.202;18.744;2022-08-04T00:11:22;97594.56;;;20.94;51.88
70589;BME280;58152;49.202;18.744;2022-08-04T00:13:57;97590.47;;;20.90;52.13
70589;BME280;58152;49.202;18.744;2022-08-04T00:16:28;97582.09;;;20.84;51.98
70589;BME280;58152;49.202;18.744;2022-08-04T00:19:18;97588.28;;;20.84;52.51
70589;BME280;58152;49.202;18.744;2022-08-04T00:21:58;97582.63;;;20.77;52.33
70589;BME280;58152;49.202;18.744;2022-08-04T00:24:29;97577.06;;;20.69;52.58
70589;BME280;58152;49.202;18.744;2022-08-04T00:27:00;97584.09;;;20.70;52.57
70589;BME280;58152;49.202;18.744;2022-08-04T00:29:32;97591.38;;;20.68;52.66
70589;BME280;58152;49.202;18.744;2022-08-04T00:32:11;97590.78;;;20.65;52.85
70589;BME280;58152;49.202;18.744;2022-08-04T00:34:50;97576.38;;;20.56;52.87
70589;BME280;58152;49.202;18.744;2022-08-04T00:37:24;97595.78;;;20.58;53.12
70589;BME280;58152;49.202;18.744;2022-08-04T00:39:56;97591.22;;;20.49;53.12
70589;BME280;58152;49.202;18.744;2022-08-04T00:42:44;97594.72;;;20.49;54.02
70589;BME280;58152;49.202;18.744;2022-08-04T00:51:14;97597.34;;;20.38;54.20
70589;BME280;58152;49.202;18.744;2022-08-04T00:54:16;97599.56;;;20.33;54.28
70589;BME280;58152;49.202;18.744;2022-08-04T00:56:50;97597.25;;;20.28;53.61
70589;BME280;58152;49.202;18.744;2022-08-04T01:10:47;97601.69;;;20.07;53.75
70589;BME280;58152;49.202;18.744;2022-08-04T01:15:59;97608.69;;;19.97;54.71
70589;BME280;58152;49.202;18.744;2022-08-04T01:18:43;97600.81;;;19.95;54.74
70589;BME280;58152;49.202;18.744;2022-08-04T01:21:35;97600.22;;;19.92;55.16
70589;BME280;58152;49.202;18.744;2022-08-04T01:24:28;97605.53;;;19.92;55.04
70589;BME280;58152;49.202;18.744;2022-08-04T01:29:34;97599.97;;;19.84;54.41
70589;BME280;58152;49.202;18.744;2022-08-04T01:32:11;97601.78;;;19.83;54.52
70589;BME280;58152;49.202;18.744;2022-08-04T01:34:47;97590.78;;;19.76;54.97
70589;BME280;58152;49.202;18.744;2022-08-04T01:40:03;97592.22;;;19.69;54.70
70589;BME280;58152;49.202;18.744;2022-08-04T01:42:35;97593.31;;;19.67;54.99
70589;BME280;58152;49.202;18.744;2022-08-04T01:45:11;97602.28;;;19.66;55.61
70589;BME280;58152;49.202;18.744;2022-08-04T01:47:41;97587.72;;;19.59;55.18
70589;BME280;58152;49.202;18.744;2022-08-04T01:50:09;97588.06;;;19.54;55.09
70589;BME280;58152;49.202;18.744;2022-08-04T01:52:37;97595.34;;;19.52;55.17
70589;BME280;58152;49.202;18.744;2022-08-04T01:55:06;97592.91;;;19.49;55.28
70589;BME280;58152;49.202;18.744;2022-08-04T01:57:35;97594.94;;;19.45;55.42
70589;BME280;58152;49.202;18.744;2022-08-04T02:00:04;97595.31;;;19.41;55.43
70589;BME280;58152;49.202;18.744;2022-08-04T02:02:30;97592.03;;;19.37;55.47
70589;BME280;58152;49.202;18.744;2022-08-04T02:04:56;97594.94;;;19.34;55.64
70589;BME280;58152;49.202;18.744;2022-08-04T02:07:31;97592.50;;;19.31;55.66
70589;BME280;58152;49.202;18.744;2022-08-04T02:13:13;97588.97;;;19.19;57.01
70589;BME280;58152;49.202;18.744;2022-08-04T02:15:52;97599.84;;;19.16;56.37
70589;BME280;58152;49.202;18.744;2022-08-04T02:18:53;97591.97;;;19.15;57.03
70589;BME280;58152;49.202;18.744;2022-08-04T02:21:24;97598.63;;;19.09;55.92
70589;BME280;58152;49.202;18.744;2022-08-04T02:23:54;97580.69;;;19.00;56.36
70589;BME280;58152;49.202;18.744;2022-08-04T02:26:27;97588.59;;;19.01;56.30
70589;BME280;58152;49.202;18.744;2022-08-04T02:31:32;97587.97;;;18.98;57.11
70589;BME280;58152;49.202;18.744;2022-08-04T02:36:58;97585.03;;;18.90;56.52
70589;BME280;58152;49.202;18.744;2022-08-04T02:39:29;97587.69;;;18.90;56.42
70589;BME280;58152;49.202;18.744;2022-08-04T02:41:58;97589.63;;;18.88;56.76
70589;BME280;58152;49.202;18.744;2022-08-04T02:44:25;97585.59;;;18.82;56.33
70589;BME280;58152;49.202;18.744;2022-08-04T02:46:53;97574.38;;;18.78;56.86
70589;BME280;58152;49.202;18.744;2022-08-04T02:49:22;97583.19;;;18.79;56.83
70589;BME280;58152;49.202;18.744;2022-08-04T02:51:56;97579.06;;;18.75;57.32
70589;BME280;58152;49.202;18.744;2022-08-04T02:54:25;97580.44;;;18.68;57.05
70589;BME280;58152;49.202;18.744;2022-08-04T02:56:52;97576.09;;;18.67;57.21
70589;BME280;58152;49.202;18.744;2022-08-04T02:59:24;97586.09;;;18.63;57.16
70589;BME280;58152;49.202;18.744;2022-08-04T03:01:49;97577.63;;;18.58;57.17
70589;BME280;58152;49.202;18.744;2022-08-04T03:04:39;97583.78;;;18.59;57.93
70589;BME280;58152;49.202;18.744;2022-08-04T03:27:15;97587.94;;;18.26;57.96
70589;BME280;58152;49.202;18.744;2022-08-04T03:30:07;97596.97;;;18.23;58.97
70589;BME280;58152;49.202;18.744;2022-08-04T03:49:46;97607.75;;;18.09;59.05
70589;BME280;58152;49.202;18.744;2022-08-04T03:58:42;97606.91;;;17.96;59.65
70589;BME280;58152;49.202;18.744;2022-08-04T04:06:48;97613.63;;;17.89;59.12
70589;BME280;58152;49.202;18.744;2022-08-04T04:15:30;97613.75;;;17.87;60.15
70589;BME280;58152;49.202;18.744;2022-08-04T04:21:16;97613.13;;;17.84;60.20
70589;BME280;58152;49.202;18.744;2022-08-04T04:32:31;97606.19;;;17.81;59.99
70589;BME280;58152;49.202;18.744;2022-08-04T04:39:05;97614.91;;;17.83;60.22
70589;BME280;58152;49.202;18.744;2022-08-04T04:56:14;97616.72;;;17.83;61.03
70589;BME280;58152;49.202;18.744;2022-08-04T04:58:42;97615.34;;;17.77;60.79
70589;BME280;58152;49.202;18.744;2022-08-04T05:01:38;97632.34;;;17.87;61.58
70589;BME280;58152;49.202;18.744;2022-08-04T05:04:58;97623.59;;;17.85;60.99
70589;BME280;58152;49.202;18.744;2022-08-04T05:15:33;97630.72;;;17.85;61.44
70589;BME280;58152;49.202;18.744;2022-08-04T05:18:01;97625.53;;;17.83;61.55
70589;BME280;58152;49.202;18.744;2022-08-04T05:20:33;97630.84;;;17.83;61.51
70589;BME280;58152;49.202;18.744;2022-08-04T05:23:12;97636.34;;;17.93;62.21
70589;BME280;58152;49.202;18.744;2022-08-04T05:25:52;97633.69;;;17.93;62.03
70589;BME280;58152;49.202;18.744;2022-08-04T05:31:04;97629.97;;;17.95;62.10
70589;BME280;58152;49.202;18.744;2022-08-04T05:33:40;97621.38;;;17.92;62.38
70589;BME280;58152;49.202;18.744;2022-08-04T05:36:09;97627.81;;;18.00;64.04
70589;BME280;58152;49.202;18.744;2022-08-04T05:38:39;97631.56;;;17.98;62.52
70589;BME280;58152;49.202;18.744;2022-08-04T05:41:07;97627.94;;;17.99;62.78
70589;BME280;58152;49.202;18.744;2022-08-04T05:43:36;97621.66;;;18.00;62.77
70589;BME280;58152;49.202;18.744;2022-08-04T05:46:05;97629.63;;;18.00;63.09
70589;BME280;58152;49.202;18.744;2022-08-04T05:48:32;97634.09;;;17.99;62.88
70589;BME280;58152;49.202;18.744;2022-08-04T05:51:00;97627.09;;;17.98;63.18
70589;BME280;58152;49.202;18.744;2022-08-04T05:53:27;97634.53;;;18.06;63.26
70589;BME280;58152;49.202;18.744;2022-08-04T05:55:55;97633.78;;;18.04;63.18
70589;BME280;58152;49.202;18.744;2022-08-04T05:58:21;97627.41;;;18.07;63.77
70589;BME280;58152;49.202;18.744;2022-08-04T06:00:47;97626.44;;;18.08;63.76
70589;BME280;58152;49.202;18.744;2022-08-04T06:03:17;97624.09;;;18.16;63.76
70589;BME280;58152;49.202;18.744;2022-08-04T06:05:45;97626.84;;;18.14;63.87
70589;BME280;58152;49.202;18.744;2022-08-04T06:08:11;97618.03;;;18.14;63.73
70589;BME280;58152;49.202;18.744;2022-08-04T06:10:37;97631.72;;;18.20;63.95
70589;BME280;58152;49.202;18.744;2022-08-04T06:13:10;97624.50;;;18.22;64.02
70589;BME280;58152;49.202;18.744;2022-08-04T06:15:38;97632.38;;;18.24;63.96
70589;BME280;58152;49.202;18.744;2022-08-04T06:18:06;97614.00;;;18.21;63.94
70589;BME280;58152;49.202;18.744;2022-08-04T06:20:36;97633.84;;;18.28;64.02
70589;BME280;58152;49.202;18.744;2022-08-04T06:23:12;97615.25;;;18.28;64.00
70589;BME280;58152;49.202;18.744;2022-08-04T06:25:46;97628.09;;;18.34;63.91
70589;BME280;58152;49.202;18.744;2022-08-04T06:28:14;97617.66;;;18.31;64.02
70589;BME280;58152;49.202;18.744;2022-08-04T06:30:41;97619.34;;;18.32;64.35
70589;BME280;58152;49.202;18.744;2022-08-04T06:33:13;97614.47;;;18.39;64.19
70589;BME280;58152;49.202;18.744;2022-08-04T06:36:00;97617.84;;;18.41;64.20
70589;BME280;58152;49.202;18.744;2022-08-04T06:38:27;97622.81;;;18.45;63.99
70589;BME280;58152;49.202;18.744;2022-08-04T06:40:54;97618.28;;;18.47;63.98
70589;BME280;58152;49.202;18.744;2022-08-04T06:43:25;97621.78;;;18.48;64.15
70589;BME280;58152;49.202;18.744;2022-08-04T06:45:51;97614.66;;;18.48;63.66
70589;BME280;58152;49.202;18.744;2022-08-04T06:48:20;97611.03;;;18.49;64.01
70589;BME280;58152;49.202;18.744;2022-08-04T06:50:47;97611.66;;;18.53;64.07
70589;BME280;58152;49.202;18.744;2022-08-04T06:53:14;97611.44;;;18.56;64.09
70589;BME280;58152;49.202;18.744;2022-08-04T06:55:42;97610.13;;;18.62;64.11
70589;BME280;58152;49.202;18.744;2022-08-04T06:58:08;97610.84;;;18.64;64.28
70589;BME280;58152;49.202;18.744;2022-08-04T07:00:35;97605.53;;;18.64;64.35
70589;BME280;58152;49.202;18.744;2022-08-04T07:03:02;97602.66;;;18.67;64.26
70589;BME280;58152;49.202;18.744;2022-08-04T07:05:29;97617.31;;;18.72;64.28
70589;BME280;58152;49.202;18.744;2022-08-04T07:07:55;97614.44;;;18.75;64.58
70589;BME280;58152;49.202;18.744;2022-08-04T07:10:22;97606.34;;;18.77;64.46
70589;BME280;58152;49.202;18.744;2022-08-04T07:12:49;97614.75;;;18.84;64.44
70589;BME280;58152;49.202;18.744;2022-08-04T07:15:16;97612.78;;;18.86;64.63
70589;BME280;58152;49.202;18.744;2022-08-04T07:17:43;97614.50;;;18.87;64.41
70589;BME280;58152;49.202;18.744;2022-08-04T07:20:09;97614.28;;;18.90;64.48
70589;BME280;58152;49.202;18.744;2022-08-04T07:22:35;97617.78;;;18.90;64.77
70589;BME280;58152;49.202;18.744;2022-08-04T07:25:01;97611.97;;;18.96;64.83
70589;BME280;58152;49.202;18.744;2022-08-04T07:27:35;97611.63;;;19.01;64.88
70589;BME280;58152;49.202;18.744;2022-08-04T07:30:04;97616.59;;;19.05;64.90
70589;BME280;58152;49.202;18.744;2022-08-04T07:32:36;97602.72;;;19.02;64.93
70589;BME280;58152;49.202;18.744;2022-08-04T07:35:04;97617.84;;;19.13;64.96
70589;BME280;58152;49.202;18.744;2022-08-04T07:37:30;97603.84;;;19.11;64.78
70589;BME280;58152;49.202;18.744;2022-08-04T07:39:56;97606.25;;;19.14;65.12
70589;BME280;58152;49.202;18.744;2022-08-04T07:42:22;97603.25;;;19.18;65.12
70589;BME280;58152;49.202;18.744;2022-08-04T07:44:48;97603.84;;;19.22;65.05
70589;BME280;58152;49.202;18.744;2022-08-04T07:47:13;97600.97;;;19.25;65.16
70589;BME280;58152;49.202;18.744;2022-08-04T07:49:42;97602.53;;;19.27;65.24
70589;BME280;58152;49.202;18.744;2022-08-04T07:52:16;97600.50;;;19.31;65.27
70589;BME280;58152;49.202;18.744;2022-08-04T07:54:52;97595.03;;;19.33;65.09
70589;BME280;58152;49.202;18.744;2022-08-04T07:57:21;97598.09;;;19.39;64.91
70589;BME280;58152;49.202;18.744;2022-08-04T07:59:49;97596.06;;;19.43;64.90
70589;BME280;58152;49.202;18.744;2022-08-04T08:02:17;97586.47;;;19.40;65.12
70589;BME280;58152;49.202;18.744;2022-08-04T08:04:45;97595.56;;;19.49;64.90
70589;BME280;58152;49.202;18.744;2022-08-04T08:07:11;97586.75;;;19.48;64.88
70589;BME280;58152;49.202;18.744;2022-08-04T08:09:36;97578.41;;;19.53;64.85
70589;BME280;58152;49.202;18.744;2022-08-04T08:12:02;97585.69;;;19.62;64.79
70589;BME280;58152;49.202;18.744;2022-08-04T08:14:28;97576.75;;;19.63;64.58
70589;BME280;58152;49.202;18.744;2022-08-04T08:16:54;97573.72;;;19.68;64.29
70589;BME280;58152;49.202;18.744;2022-08-04T08:19:20;97582.19;;;19.73;64.16
70589;BME280;58152;49.202;18.744;2022-08-04T08:21:47;97578.19;;;19.78;63.62
70589;BME280;58152;49.202;18.744;2022-08-04T08:24:16;97583.28;;;19.82;63.32
70589;BME280;58152;49.202;18.744;2022-08-04T08:26:42;97584.72;;;19.86;63.06
70589;BME280;58152;49.202;18.744;2022-08-04T08:29:07;97584.72;;;19.86;62.87
70589;BME280;58152;49.202;18.744;2022-08-04T08:31:33;97579.88;;;19.91;62.61
70589;BME280;58152;49.202;18.744;2022-08-04T08:33:59;97576.00;;;19.95;62.56
70589;BME280;58152;49.202;18.744;2022-08-04T08:36:34;97577.09;;;20.03;63.00
70589;BME280;58152;49.202;18.744;2022-08-04T08:42:46;97572.72;;;20.14;63.71
70589;BME280;58152;49.202;18.744;2022-08-04T09:10:25;97562.38;;;20.54;62.87
70589;BME280;58152;49.202;18.744;2022-08-04T09:12:58;97575.53;;;20.67;62.67
70589;BME280;58152;49.202;18.744;2022-08-04T09:15:34;97572.47;;;20.71;62.45
70589;BME280;58152;49.202;18.744;2022-08-04T09:18:12;97565.06;;;20.75;62.42
70589;BME280;58152;49.202;18.744;2022-08-04T09:20:46;97567.09;;;20.83;61.97
70589;BME280;58152;49.202;18.744;2022-08-04T09:25:47;97570.56;;;20.94;61.06
70589;BME280;58152;49.202;18.744;2022-08-04T09:28:21;97565.41;;;21.02;60.76
70589;BME280;58152;49.202;18.744;2022-08-04T09:31:18;97561.00;;;21.13;60.46
70589;BME280;58152;49.202;18.744;2022-08-04T09:33:58;97560.88;;;21.14;60.58
70589;BME280;58152;49.202;18.744;2022-08-04T09:36:33;97557.66;;;21.20;60.17
70589;BME280;58152;49.202;18.744;2022-08-04T09:44:30;97551.19;;;21.34;60.64
70589;BME280;58152;49.202;18.744;2022-08-04T09:47:09;97542.66;;;21.40;59.58
70589;BME280;58152;49.202;18.744;2022-08-04T09:52:26;97544.25;;;21.52;58.99
70589;BME280;58152;49.202;18.744;2022-08-04T09:55:08;97543.47;;;21.62;58.90
70589;BME280;58152;49.202;18.744;2022-08-04T09:58:01;97534.34;;;21.64;58.42
70589;BME280;58152;49.202;18.744;2022-08-04T10:01:07;97531.13;;;21.70;58.75
70589;BME280;58152;49.202;18.744;2022-08-04T10:26:44;97526.72;;;23.08;55.24
70589;BME280;58152;49.202;18.744;2022-08-04T10:29:55;97522.72;;;23.31;54.00
70589;BME280;58152;49.202;18.744;2022-08-04T10:32:51;97520.53;;;23.54;53.63
70589;BME280;58152;49.202;18.744;2022-08-04T10:35:22;97525.25;;;23.80;53.20
70589;BME280;58152;49.202;18.744;2022-08-04T10:40:45;97514.56;;;24.25;53.35
70589;BME280;58152;49.202;18.744;2022-08-04T10:45:48;97510.78;;;24.64;52.15
70589;BME280;58152;49.202;18.744;2022-08-04T10:48:23;97502.72;;;24.81;51.21
70589;BME280;58152;49.202;18.744;2022-08-04T10:51:08;97512.97;;;25.04;50.85
70589;BME280;58152;49.202;18.744;2022-08-04T10:53:38;97508.75;;;25.19;51.33
70589;BME280;58152;49.202;18.744;2022-08-04T10:56:14;97501.81;;;25.34;50.08
70589;BME280;58152;49.202;18.744;2022-08-04T10:58:45;97502.72;;;25.51;50.21
70589;BME280;58152;49.202;18.744;2022-08-04T11:01:19;97501.66;;;25.70;49.93
70589;BME280;58152;49.202;18.744;2022-08-04T11:03:53;97504.47;;;25.87;49.59
70589;BME280;58152;49.202;18.744;2022-08-04T11:06:22;97501.50;;;26.06;49.02
70589;BME280;58152;49.202;18.744;2022-08-04T11:08:51;97498.66;;;26.16;48.49
70589;BME280;58152;49.202;18.744;2022-08-04T11:11:38;97505.63;;;26.34;46.58
70589;BME280;58152;49.202;18.744;2022-08-04T11:14:07;97508.03;;;26.46;47.29
70589;BME280;58152;49.202;18.744;2022-08-04T11:16:51;97495.25;;;26.56;46.45
70589;BME280;58152;49.202;18.744;2022-08-04T11:21:59;97507.38;;;26.84;46.71
70589;BME280;58152;49.202;18.744;2022-08-04T11:27:15;97506.91;;;27.14;45.69
70589;BME280;58152;49.202;18.744;2022-08-04T11:35:37;97498.72;;;27.62;44.03
70589;BME280;58152;49.202;18.744;2022-08-04T11:38:22;97495.16;;;27.78;44.17
70589;BME280;58152;49.202;18.744;2022-08-04T11:40:55;97490.22;;;27.90;44.53
70589;BME280;58152;49.202;18.744;2022-08-04T11:43:28;97484.63;;;28.00;43.70
70589;BME280;58152;49.202;18.744;2022-08-04T11:46:05;97489.09;;;28.16;43.11
70589;BME280;58152;49.202;18.744;2022-08-04T11:51:36;97477.72;;;28.36;42.60
70589;BME280;58152;49.202;18.744;2022-08-04T11:54:05;97473.75;;;28.47;42.04
70589;BME280;58152;49.202;18.744;2022-08-04T11:56:31;97470.63;;;28.58;42.14
70589;BME280;58152;49.202;18.744;2022-08-04T11:58:57;97471.25;;;28.69;41.26
70589;BME280;58152;49.202;18.744;2022-08-04T12:01:55;97466.19;;;28.88;40.14
70589;BME280;58152;49.202;18.744;2022-08-04T12:07:22;97463.41;;;29.20;40.55
70589;BME280;58152;49.202;18.744;2022-08-04T12:10:03;97461.53;;;29.35;40.42
70589;BME280;58152;49.202;18.744;2022-08-04T12:12:57;97462.84;;;29.54;38.40
70589;BME280;58152;49.202;18.744;2022-08-04T12:18:26;97454.38;;;29.86;38.68
70589;BME280;58152;49.202;18.744;2022-08-04T12:21:00;97462.09;;;30.04;38.74
70589;BME280;58152;49.202;18.744;2022-08-04T12:23:46;97449.47;;;30.26;38.21
70589;BME280;58152;49.202;18.744;2022-08-04T12:30:20;97456.09;;;30.81;36.42
70589;BME280;58152;49.202;18.744;2022-08-04T12:39:29;97456.66;;;31.26;37.81
70589;BME280;58152;49.202;18.744;2022-08-04T12:42:12;97456.31;;;31.36;38.00
70589;BME280;58152;49.202;18.744;2022-08-04T12:44:50;97449.94;;;31.50;37.74
70589;BME280;58152;49.202;18.744;2022-08-04T12:47:22;97455.28;;;31.72;37.16
70589;BME280;58152;49.202;18.744;2022-08-04T12:53:02;97437.53;;;32.04;36.05
70589;BME280;58152;49.202;18.744;2022-08-04T12:56:10;97435.66;;;32.04;36.72
70589;BME280;58152;49.202;18.744;2022-08-04T13:02:29;97442.06;;;32.58;34.75
70589;BME280;58152;49.202;18.744;2022-08-04T13:05:27;97431.19;;;32.71;32.20
70589;BME280;58152;49.202;18.744;2022-08-04T13:11:08;97424.75;;;32.99;34.08
70589;BME280;58152;49.202;18.744;2022-08-04T13:13:53;97420.59;;;33.09;31.73
70589;BME280;58152;49.202;18.744;2022-08-04T13:16:34;97410.72;;;33.22;33.62
70589;BME280;58152;49.202;18.744;2022-08-04T13:19:07;97418.66;;;33.36;33.17
70589;BME280;58152;49.202;18.744;2022-08-04T13:21:54;97407.16;;;33.54;33.48
70589;BME280;58152;49.202;18.744;2022-08-04T13:24:22;97407.06;;;33.68;33.05
70589;BME280;58152;49.202;18.744;2022-08-04T13:27:01;97401.22;;;33.77;32.36
70589;BME280;58152;49.202;18.744;2022-08-04T13:29:45;97413.91;;;33.97;32.55
70589;BME280;58152;49.202;18.744;2022-08-04T13:32:22;97402.97;;;34.10;31.33
70589;BME280;58152;49.202;18.744;2022-08-04T13:35:01;97392.44;;;34.20;31.68
70589;BME280;58152;49.202;18.744;2022-08-04T13:37:33;97403.69;;;34.30;31.48
70589;BME280;58152;49.202;18.744;2022-08-04T13:40:12;97399.63;;;34.39;30.96
70589;BME280;58152;49.202;18.744;2022-08-04T13:42:45;97398.78;;;34.46;31.23
70589;BME280;58152;49.202;18.744;2022-08-04T13:45:12;97394.78;;;34.48;31.37
70589;BME280;58152;49.202;18.744;2022-08-04T13:47:39;97393.25;;;34.59;31.22
70589;BME280;58152;49.202;18.744;2022-08-04T13:50:28;97389.38;;;34.73;29.58
70589;BME280;58152;49.202;18.744;2022-08-04T13:52:59;97388.03;;;34.82;31.10
70589;BME280;58152;49.202;18.744;2022-08-04T13:55:30;97391.94;;;34.93;29.35
70589;BME280;58152;49.202;18.744;2022-08-04T13:58:18;97383.13;;;34.91;28.32
70589;BME280;58152;49.202;18.744;2022-08-04T14:00:57;97387.97;;;34.89;29.86
70589;BME280;58152;49.202;18.744;2022-08-04T14:03:43;97380.09;;;35.06;29.32
70589;BME280;58152;49.202;18.744;2022-08-04T14:06:23;97388.16;;;35.19;28.39
70589;BME280;58152;49.202;18.744;2022-08-04T14:08:52;97388.31;;;35.24;30.00
70589;BME280;58152;49.202;18.744;2022-08-04T14:11:33;97387.84;;;35.27;28.16
70589;BME280;58152;49.202;18.744;2022-08-04T14:14:19;97391.94;;;35.36;28.70
70589;BME280;58152;49.202;18.744;2022-08-04T14:16:59;97385.97;;;35.46;28.38
70589;BME280;58152;49.202;18.744;2022-08-04T14:19:27;97387.72;;;35.59;29.84
70589;BME280;58152;49.202;18.744;2022-08-04T14:21:52;97381.16;;;35.67;29.59
70589;BME280;58152;49.202;18.744;2022-08-04T14:24:23;97378.19;;;35.68;28.99
70589;BME280;58152;49.202;18.744;2022-08-04T14:26:49;97382.13;;;35.72;28.46
70589;BME280;58152;49.202;18.744;2022-08-04T14:29:21;97375.00;;;35.71;27.18
70589;BME280;58152;49.202;18.744;2022-08-04T14:31:47;97375.59;;;35.73;28.82
70589;BME280;58152;49.202;18.744;2022-08-04T14:34:27;97372.88;;;35.73;26.23
70589;BME280;58152;49.202;18.744;2022-08-04T14:37:20;97374.69;;;35.79;26.78
70589;BME280;58152;49.202;18.744;2022-08-04T14:39:50;97374.56;;;35.74;28.63
70589;BME280;58152;49.202;18.744;2022-08-04T14:42:17;97380.84;;;35.75;28.66
70589;BME280;58152;49.202;18.744;2022-08-04T14:44:58;97369.69;;;35.76;26.38
70589;BME280;58152;49.202;18.744;2022-08-04T14:47:56;97374.69;;;35.79;26.76
70589;BME280;58152;49.202;18.744;2022-08-04T14:50:44;97362.47;;;35.45;27.16
70589;BME280;58152;49.202;18.744;2022-08-04T14:53:25;97375.56;;;35.36;26.35
70589;BME280;58152;49.202;18.744;2022-08-04T14:55:55;97370.63;;;35.52;28.26
70589;BME280;58152;49.202;18.744;2022-08-04T14:58:29;97361.28;;;35.59;27.43
70589;BME280;58152;49.202;18.744;2022-08-04T15:01:24;97379.16;;;35.74;26.48
70589;BME280;58152;49.202;18.744;2022-08-04T15:03:53;97365.31;;;35.75;27.51
70589;BME280;58152;49.202;18.744;2022-08-04T15:06:22;97366.50;;;35.79;27.96
70589;BME280;58152;49.202;18.744;2022-08-04T15:08:56;97372.84;;;35.92;27.27
70589;BME280;58152;49.202;18.744;2022-08-04T15:11:22;97350.16;;;35.91;27.98
70589;BME280;58152;49.202;18.744;2022-08-04T15:13:48;97356.41;;;35.98;27.79
70589;BME280;58152;49.202;18.744;2022-08-04T15:19:08;97364.34;;;35.51;28.71
70589;BME280;58152;49.202;18.744;2022-08-04T15:21:35;97368.34;;;35.67;28.24
70589;BME280;58152;49.202;18.744;2022-08-04T15:24:01;97366.97;;;35.58;28.13
70589;BME280;58152;49.202;18.744;2022-08-04T15:26:43;97369.44;;;35.41;27.48
70589;BME280;58152;49.202;18.744;2022-08-04T15:29:41;97372.50;;;35.33;26.64
70589;BME280;58152;49.202;18.744;2022-08-04T15:32:17;97361.47;;;35.21;27.94
70589;BME280;58152;49.202;18.744;2022-08-04T15:35:16;97371.41;;;35.16;26.41
70589;BME280;58152;49.202;18.744;2022-08-04T15:38:08;97375.25;;;35.08;26.99
70589;BME280;58152;49.202;18.744;2022-08-04T15:40:58;97365.25;;;34.95;26.83
70589;BME280;58152;49.202;18.744;2022-08-04T15:43:48;97359.28;;;34.86;26.58
70589;BME280;58152;49.202;18.744;2022-08-04T15:49:43;97358.91;;;34.58;28.31
70589;BME280;58152;49.202;18.744;2022-08-04T15:52:16;97352.34;;;34.34;28.78
70589;BME280;58152;49.202;18.744;2022-08-04T15:54:42;97350.13;;;34.18;28.94
70589;BME280;58152;49.202;18.744;2022-08-04T15:57:08;97344.59;;;34.06;28.82
70589;BME280;58152;49.202;18.744;2022-08-04T16:00:05;97343.16;;;33.97;28.28
70589;BME280;58152;49.202;18.744;2022-08-04T16:02:38;97340.06;;;33.80;29.10
70589;BME280;58152;49.202;18.744;2022-08-04T16:40:32;97340.97;;;32.82;29.57
70589;BME280;58152;49.202;18.744;2022-08-04T16:43:06;97322.38;;;32.66;30.50
70589;BME280;58152;49.202;18.744;2022-08-04T16:49:30;97329.06;;;32.57;29.71
70589;BME280;58152;49.202;18.744;2022-08-04T17:06:13;97329.03;;;32.30;31.17
70589;BME280;58152;49.202;18.744;2022-08-04T17:08:43;97320.66;;;32.25;31.02
70589;BME280;58152;49.202;18.744;2022-08-04T17:14:35;97323.38;;;32.12;31.18
70589;BME280;58152;49.202;18.744;2022-08-04T17:28:32;97328.97;;;31.91;30.48
70589;BME280;58152;49.202;18.744;2022-08-04T17:31:38;97322.25;;;31.80;31.12
70589;BME280;58152;49.202;18.744;2022-08-04T17:55:27;97319.94;;;31.29;33.96
70589;BME280;58152;49.202;18.744;2022-08-04T18:01:58;97341.50;;;31.16;34.73
70589;BME280;58152;49.202;18.744;2022-08-04T18:19:50;97361.97;;;30.62;36.40
70589;BME280;58152;49.202;18.744;2022-08-04T19:10:19;97384.22;;;28.81;40.90
70589;BME280;58152;49.202;18.744;2022-08-04T19:19:46;97391.59;;;28.50;41.39
70589;BME280;58152;49.202;18.744;2022-08-04T19:22:11;97387.97;;;28.43;41.68
70589;BME280;58152;49.202;18.744;2022-08-04T19:24:37;97394.25;;;28.35;42.10
70589;BME280;58152;49.202;18.744;2022-08-04T19:27:17;97399.81;;;28.33;42.29
70589;BME280;58152;49.202;18.744;2022-08-04T19:29:53;97399.31;;;28.30;42.03
70589;BME280;58152;49.202;18.744;2022-08-04T19:32:18;97398.38;;;28.23;42.15
70589;BME280;58152;49.202;18.744;2022-08-04T19:34:45;97409.69;;;28.18;42.28
70589;BME280;58152;49.202;18.744;2022-08-04T19:37:17;97395.78;;;28.06;42.74
70589;BME280;58152;49.202;18.744;2022-08-04T19:39:57;97404.41;;;28.02;43.17
70589;BME280;58152;49.202;18.744;2022-08-04T19:42:28;97399.25;;;27.92;43.12
70589;BME280;58152;49.202;18.744;2022-08-04T19:44:56;97404.81;;;27.91;42.67
70589;BME280;58152;49.202;18.744;2022-08-04T19:47:22;97398.44;;;27.83;42.77
70589;BME280;58152;49.202;18.744;2022-08-04T19:49:47;97403.72;;;27.77;42.89
70589;BME280;58152;49.202;18.744;2022-08-04T19:52:19;97396.31;;;27.62;43.52
70589;BME280;58152;49.202;18.744;2022-08-04T19:54:44;97398.38;;;27.52;43.47
70589;BME280;58152;49.202;18.744;2022-08-04T19:57:20;97407.50;;;27.51;44.06
70589;BME280;58152;49.202;18.744;2022-08-04T19:59:53;97411.72;;;27.46;43.91
70589;BME280;58152;49.202;18.744;2022-08-04T20:02:23;97419.97;;;27.44;43.57
70589;BME280;58152;49.202;18.744;2022-08-04T20:04:53;97409.06;;;27.29;44.07
70589;BME280;58152;49.202;18.744;2022-08-04T20:09:58;97414.00;;;27.18;44.17
70589;BME280;58152;49.202;18.744;2022-08-04T20:12:24;97422.94;;;27.18;43.94
70589;BME280;58152;49.202;18.744;2022-08-04T20:14:54;97427.31;;;27.11;44.39
70589;BME280;58152;49.202;18.744;2022-08-04T20:17:49;97431.69;;;27.04;44.26
70589;BME280;58152;49.202;18.744;2022-08-04T20:20:20;97425.28;;;26.97;44.81